sensor_id;sensor_type;location;lat;lon;timestamp;pressure;altitude;pressure_sealevel;temperature;humidity
77017;BME280;65949;53.132;17.930;2023-08-17T00:01:40;101565.11;;;19.33;70.19
77017;BME280;65949;53.132;17.930;2023-08-17T00:04:07;101557.33;;;19.30;69.39
77017;BME280;65949;53.132;17.930;2023-08-17T00:06:34;101555.95;;;19.27;69.01
77017;BME280;65949;53.132;17.930;2023-08-17T00:09:00;101556.00;;;19.27;68.65
77017;BME280;65949;53.132;17.930;2023-08-17T00:11:27;101555.92;;;19.26;68.04
77017;BME280;65949;53.132;17.930;2023-08-17T00:13:54;101558.23;;;19.26;67.87
77017;BME280;65949;53.132;17.930;2023-08-17T00:16:21;101563.73;;;19.26;67.22
77017;BME280;65949;53.132;17.930;2023-08-17T00:18:48;101565.30;;;19.27;66.63
77017;BME280;65949;53.132;17.930;2023-08-17T00:21:15;101564.85;;;19.25;65.80
77017;BME280;65949;53.132;17.930;2023-08-17T00:23:41;101573.41;;;19.25;65.39
77017;BME280;65949;53.132;17.930;2023-08-17T00:26:08;101575.30;;;19.22;64.22
77017;BME280;65949;53.132;17.930;2023-08-17T00:28:35;101578.91;;;19.20;64.53
77017;BME280;65949;53.132;17.930;2023-08-17T00:31:02;101572.15;;;19.20;63.40
77017;BME280;65949;53.132;17.930;2023-08-17T00:33:29;101566.51;;;19.19;63.88
77017;BME280;65949;53.132;17.930;2023-08-17T00:35:56;101562.55;;;19.19;63.43
77017;BME280;65949;53.132;17.930;2023-08-17T00:38:22;101559.13;;;19.18;62.97
77017;BME280;65949;53.132;17.930;2023-08-17T00:40:49;101558.27;;;19.15;62.16
77017;BME280;65949;53.132;17.930;2023-08-17T00:43:15;101562.64;;;19.12;62.23
77017;BME280;65949;53.132;17.930;2023-08-17T00:45:44;101562.36;;;19.10;62.07
77017;BME280;65949;53.132;17.930;2023-08-17T00:48:13;101562.52;;;19.09;62.44
77017;BME280;65949;53.132;17.930;2023-08-17T00:50:40;101561.64;;;19.08;61.95
77017;BME280;65949;53.132;17.930;2023-08-17T00:53:07;101556.73;;;19.06;61.93
77017;BME280;65949;53.132;17.930;2023-08-17T00:55:39;101556.19;;;19.06;62.04
77017;BME280;65949;53.132;17.930;2023-08-17T00:58:07;101551.56;;;19.04;62.19
77017;BME280;65949;53.132;17.930;2023-08-17T01:00:34;101549.75;;;19.01;62.19
77017;BME280;65949;53.132;17.930;2023-08-17T01:03:00;101555.33;;;18.99;62.15
77017;BME280;65949;53.132;17.930;2023-08-17T01:05:27;101559.85;;;18.97;62.23
77017;BME280;65949;53.132;17.930;2023-08-17T01:07:56;101563.42;;;18.95;62.29
77017;BME280;65949;53.132;17.930;2023-08-17T01:10:22;101568.64;;;18.92;62.41
77017;BME280;65949;53.132;17.930;2023-08-17T01:13:18;101562.05;;;18.92;62.38
77017;BME280;65949;53.132;17.930;2023-08-17T01:15:53;101560.28;;;18.89;62.45
77017;BME280;65949;53.132;17.930;2023-08-17T01:20:53;101563.98;;;18.81;62.87
77017;BME280;65949;53.132;17.930;2023-08-17T01:23:20;101566.83;;;18.78;62.96
77017;BME280;65949;53.132;17.930;2023-08-17T01:25:47;101569.90;;;18.77;63.21
77017;BME280;65949;53.132;17.930;2023-08-17T01:28:14;101570.77;;;18.75;63.30
77017;BME280;65949;53.132;17.930;2023-08-17T01:30:52;101568.80;;;18.73;63.60
77017;BME280;65949;53.132;17.930;2023-08-17T01:33:40;101566.87;;;18.70;63.71
77017;BME280;65949;53.132;17.930;2023-08-17T01:38:56;101574.61;;;18.67;64.03
77017;BME280;65949;53.132;17.930;2023-08-17T01:41:25;101574.48;;;18.65;64.14
77017;BME280;65949;53.132;17.930;2023-08-17T01:43:53;101573.71;;;18.62;64.28
77017;BME280;65949;53.132;17.930;2023-08-17T01:46:22;101571.02;;;18.60;64.52
77017;BME280;65949;53.132;17.930;2023-08-17T01:48:48;101571.16;;;18.60;64.58
77017;BME280;65949;53.132;17.930;2023-08-17T01:51:19;101566.95;;;18.59;64.90
77017;BME280;65949;53.132;17.930;2023-08-17T01:53:46;101566.05;;;18.56;64.97
77017;BME280;65949;53.132;17.930;2023-08-17T01:56:13;101560.43;;;18.53;65.00
77017;BME280;65949;53.132;17.930;2023-08-17T01:58:40;101559.67;;;18.50;65.35
77017;BME280;65949;53.132;17.930;2023-08-17T02:01:07;101554.70;;;18.46;65.42
77017;BME280;65949;53.132;17.930;2023-08-17T02:03:33;101552.39;;;18.46;65.54
77017;BME280;65949;53.132;17.930;2023-08-17T02:06:00;101551.13;;;18.45;65.65
77017;BME280;65949;53.132;17.930;2023-08-17T02:08:26;101542.85;;;18.44;65.83
77017;BME280;65949;53.132;17.930;2023-08-17T02:10:53;101544.77;;;18.42;65.79
77017;BME280;65949;53.132;17.930;2023-08-17T02:13:21;101551.75;;;18.42;65.69
77017;BME280;65949;53.132;17.930;2023-08-17T02:15:48;101556.56;;;18.41;65.35
77017;BME280;65949;53.132;17.930;2023-08-17T02:18:15;101551.09;;;18.40;65.26
77017;BME280;65949;53.132;17.930;2023-08-17T02:20:41;101542.55;;;18.39;65.27
77017;BME280;65949;53.132;17.930;2023-08-17T02:23:08;101541.75;;;18.39;65.14
77017;BME280;65949;53.132;17.930;2023-08-17T02:25:38;101546.02;;;18.38;64.93
77017;BME280;65949;53.132;17.930;2023-08-17T02:28:05;101544.58;;;18.36;64.78
77017;BME280;65949;53.132;17.930;2023-08-17T02:30:31;101548.06;;;18.36;64.70
77017;BME280;65949;53.132;17.930;2023-08-17T02:32:58;101558.89;;;18.39;64.43
77017;BME280;65949;53.132;17.930;2023-08-17T02:35:25;101553.71;;;18.39;64.33
77017;BME280;65949;53.132;17.930;2023-08-17T02:37:52;101555.28;;;18.42;64.40
77017;BME280;65949;53.132;17.930;2023-08-17T02:40:18;101551.52;;;18.43;64.13
77017;BME280;65949;53.132;17.930;2023-08-17T02:42:45;101549.77;;;18.45;64.11
77017;BME280;65949;53.132;17.930;2023-08-17T02:45:12;101541.39;;;18.47;63.34
77017;BME280;65949;53.132;17.930;2023-08-17T02:47:38;101541.73;;;18.48;62.95
77017;BME280;65949;53.132;17.930;2023-08-17T02:50:05;101547.54;;;18.49;62.72
77017;BME280;65949;53.132;17.930;2023-08-17T02:52:33;101549.33;;;18.50;62.61
77017;BME280;65949;53.132;17.930;2023-08-17T02:55:00;101551.30;;;18.51;62.30
77017;BME280;65949;53.132;17.930;2023-08-17T02:57:27;101551.45;;;18.52;61.97
77017;BME280;65949;53.132;17.930;2023-08-17T02:59:53;101553.89;;;18.53;61.85
77017;BME280;65949;53.132;17.930;2023-08-17T03:02:20;101551.06;;;18.55;61.59
77017;BME280;65949;53.132;17.930;2023-08-17T03:04:47;101549.91;;;18.54;60.89
77017;BME280;65949;53.132;17.930;2023-08-17T03:07:13;101542.00;;;18.54;60.85
77017;BME280;65949;53.132;17.930;2023-08-17T03:09:40;101528.58;;;18.53;60.32
77017;BME280;65949;53.132;17.930;2023-08-17T03:12:07;101534.11;;;18.50;60.85
77017;BME280;65949;53.132;17.930;2023-08-17T03:14:33;101542.69;;;18.49;61.79
77017;BME280;65949;53.132;17.930;2023-08-17T03:17:00;101547.54;;;18.45;61.15
77017;BME280;65949;53.132;17.930;2023-08-17T03:19:26;101556.71;;;18.41;61.25
77017;BME280;65949;53.132;17.930;2023-08-17T03:21:53;101554.48;;;18.38;61.77
77017;BME280;65949;53.132;17.930;2023-08-17T03:24:20;101546.98;;;18.39;62.09
77017;BME280;65949;53.132;17.930;2023-08-17T03:26:47;101540.09;;;18.41;62.03
77017;BME280;65949;53.132;17.930;2023-08-17T03:29:14;101531.66;;;18.40;62.20
77017;BME280;65949;53.132;17.930;2023-08-17T03:31:40;101533.44;;;18.35;62.14
77017;BME280;65949;53.132;17.930;2023-08-17T03:34:08;101537.39;;;18.30;62.51
77017;BME280;65949;53.132;17.930;2023-08-17T03:36:35;101557.77;;;18.25;62.10
77017;BME280;65949;53.132;17.930;2023-08-17T03:39:01;101571.45;;;18.24;62.60
77017;BME280;65949;53.132;17.930;2023-08-17T03:41:28;101579.60;;;18.26;62.75
77017;BME280;65949;53.132;17.930;2023-08-17T03:43:55;101579.10;;;18.29;62.18
77017;BME280;65949;53.132;17.930;2023-08-17T03:46:21;101586.57;;;18.31;62.20
77017;BME280;65949;53.132;17.930;2023-08-17T03:48:48;101602.13;;;18.34;61.69
77017;BME280;65949;53.132;17.930;2023-08-17T03:51:15;101621.49;;;18.36;61.93
77017;BME280;65949;53.132;17.930;2023-08-17T03:53:41;101638.04;;;18.39;62.41
77017;BME280;65949;53.132;17.930;2023-08-17T03:56:08;101632.91;;;18.44;62.05
77017;BME280;65949;53.132;17.930;2023-08-17T03:58:34;101644.40;;;18.47;62.18
77017;BME280;65949;53.132;17.930;2023-08-17T04:01:01;101655.06;;;18.52;62.54
77017;BME280;65949;53.132;17.930;2023-08-17T04:03:30;101655.25;;;18.55;62.77
77017;BME280;65949;53.132;17.930;2023-08-17T04:05:56;101651.45;;;18.53;63.93
77017;BME280;65949;53.132;17.930;2023-08-17T04:08:23;101631.11;;;18.51;63.76
77017;BME280;65949;53.132;17.930;2023-08-17T04:10:49;101615.85;;;18.46;64.18
77017;BME280;65949;53.132;17.930;2023-08-17T04:13:16;101595.44;;;18.32;66.93
77017;BME280;65949;53.132;17.930;2023-08-17T04:15:42;101600.55;;;17.99;68.38
77017;BME280;65949;53.132;17.930;2023-08-17T04:18:09;101619.27;;;17.69;69.80
77017;BME280;65949;53.132;17.930;2023-08-17T04:20:36;101642.13;;;17.51;70.85
77017;BME280;65949;53.132;17.930;2023-08-17T04:23:03;101656.16;;;17.34;71.44
77017;BME280;65949;53.132;17.930;2023-08-17T04:25:30;101643.70;;;17.22;72.13
77017;BME280;65949;53.132;17.930;2023-08-17T04:27:56;101628.36;;;17.12;72.33
77017;BME280;65949;53.132;17.930;2023-08-17T04:30:23;101632.94;;;17.01;72.14
77017;BME280;65949;53.132;17.930;2023-08-17T04:32:55;101648.45;;;16.94;72.29
77017;BME280;65949;53.132;17.930;2023-08-17T04:35:22;101656.95;;;16.89;73.17
77017;BME280;65949;53.132;17.930;2023-08-17T04:37:49;101657.91;;;16.87;73.77
77017;BME280;65949;53.132;17.930;2023-08-17T04:40:16;101673.34;;;16.87;74.28
77017;BME280;65949;53.132;17.930;2023-08-17T04:42:42;101681.03;;;16.88;74.74
77017;BME280;65949;53.132;17.930;2023-08-17T04:45:09;101680.65;;;16.91;74.70
77017;BME280;65949;53.132;17.930;2023-08-17T04:47:39;101678.86;;;16.93;74.83
77017;BME280;65949;53.132;17.930;2023-08-17T04:50:06;101672.04;;;16.97;75.01
77017;BME280;65949;53.132;17.930;2023-08-17T04:52:34;101669.07;;;17.03;75.28
77017;BME280;65949;53.132;17.930;2023-08-17T04:55:02;101653.93;;;17.08;75.08
77017;BME280;65949;53.132;17.930;2023-08-17T04:57:30;101652.38;;;17.12;75.89
77017;BME280;65949;53.132;17.930;2023-08-17T04:59:57;101647.20;;;17.07;76.47
77017;BME280;65949;53.132;17.930;2023-08-17T05:02:23;101640.41;;;17.04;76.73
77017;BME280;65949;53.132;17.930;2023-08-17T05:04:50;101637.78;;;17.02;77.42
77017;BME280;65949;53.132;17.930;2023-08-17T05:07:16;101639.27;;;17.03;76.97
77017;BME280;65949;53.132;17.930;2023-08-17T05:09:43;101642.85;;;17.12;77.32
77017;BME280;65949;53.132;17.930;2023-08-17T05:12:10;101651.34;;;17.22;77.24
77017;BME280;65949;53.132;17.930;2023-08-17T05:14:37;101650.34;;;17.29;76.86
77017;BME280;65949;53.132;17.930;2023-08-17T05:17:03;101648.12;;;17.33;76.24
77017;BME280;65949;53.132;17.930;2023-08-17T05:19:30;101644.88;;;17.37;75.83
77017;BME280;65949;53.132;17.930;2023-08-17T05:21:58;101642.61;;;17.41;75.95
77017;BME280;65949;53.132;17.930;2023-08-17T05:24:25;101637.46;;;17.47;75.74
77017;BME280;65949;53.132;17.930;2023-08-17T05:26:51;101629.74;;;17.50;75.74
77017;BME280;65949;53.132;17.930;2023-08-17T05:29:18;101624.09;;;17.52;76.08
77017;BME280;65949;53.132;17.930;2023-08-17T05:31:45;101623.34;;;17.53;76.23
77017;BME280;65949;53.132;17.930;2023-08-17T05:34:11;101623.23;;;17.57;76.19
77017;BME280;65949;53.132;17.930;2023-08-17T05:36:38;101620.85;;;17.56;76.41
77017;BME280;65949;53.132;17.930;2023-08-17T05:39:06;101618.44;;;17.54;76.43
77017;BME280;65949;53.132;17.930;2023-08-17T05:41:33;101617.81;;;17.52;76.40
77017;BME280;65949;53.132;17.930;2023-08-17T05:44:00;101624.98;;;17.54;76.15
77017;BME280;65949;53.132;17.930;2023-08-17T05:46:27;101631.30;;;17.56;75.99
77017;BME280;65949;53.132;17.930;2023-08-17T05:48:54;101632.17;;;17.57;76.09
77017;BME280;65949;53.132;17.930;2023-08-17T05:51:20;101629.40;;;17.62;76.09
77017;BME280;65949;53.132;17.930;2023-08-17T05:53:47;101623.70;;;17.68;75.89
77017;BME280;65949;53.132;17.930;2023-08-17T05:56:14;101625.20;;;17.74;75.85
77017;BME280;65949;53.132;17.930;2023-08-17T05:58:40;101626.38;;;17.79;75.61
77017;BME280;65949;53.132;17.930;2023-08-17T06:01:09;101632.34;;;17.91;75.71
77017;BME280;65949;53.132;17.930;2023-08-17T06:03:36;101640.47;;;18.02;75.34
77017;BME280;65949;53.132;17.930;2023-08-17T06:06:04;101648.41;;;18.12;74.92
77017;BME280;65949;53.132;17.930;2023-08-17T06:08:32;101653.06;;;18.17;74.81
77017;BME280;65949;53.132;17.930;2023-08-17T06:10:58;101659.52;;;18.24;74.25
77017;BME280;65949;53.132;17.930;2023-08-17T06:13:25;101659.94;;;18.25;73.53
77017;BME280;65949;53.132;17.930;2023-08-17T06:15:51;101669.87;;;18.25;74.03
77017;BME280;65949;53.132;17.930;2023-08-17T06:18:18;101673.05;;;18.28;74.28
77017;BME280;65949;53.132;17.930;2023-08-17T06:20:46;101677.73;;;18.30;73.53
77017;BME280;65949;53.132;17.930;2023-08-17T06:23:14;101673.16;;;18.28;73.56
77017;BME280;65949;53.132;17.930;2023-08-17T06:25:41;101673.05;;;18.23;73.48
77017;BME280;65949;53.132;17.930;2023-08-17T06:28:07;101675.01;;;18.24;73.90
77017;BME280;65949;53.132;17.930;2023-08-17T06:30:34;101670.45;;;18.33;73.91
77017;BME280;65949;53.132;17.930;2023-08-17T06:33:00;101663.31;;;18.41;73.54
77017;BME280;65949;53.132;17.930;2023-08-17T06:35:27;101666.72;;;18.42;73.42
77017;BME280;65949;53.132;17.930;2023-08-17T06:37:53;101667.98;;;18.44;73.60
77017;BME280;65949;53.132;17.930;2023-08-17T06:40:24;101678.23;;;18.48;73.50
77017;BME280;65949;53.132;17.930;2023-08-17T06:42:51;101676.48;;;18.49;73.16
77017;BME280;65949;53.132;17.930;2023-08-17T06:45:20;101677.23;;;18.49;73.25
77017;BME280;65949;53.132;17.930;2023-08-17T06:47:47;101678.59;;;18.55;73.15
77017;BME280;65949;53.132;17.930;2023-08-17T06:50:15;101674.49;;;18.57;73.07
77017;BME280;65949;53.132;17.930;2023-08-17T06:52:41;101674.16;;;18.64;72.99
77017;BME280;65949;53.132;17.930;2023-08-17T06:55:08;101672.89;;;18.69;72.58
77017;BME280;65949;53.132;17.930;2023-08-17T06:57:36;101669.31;;;18.77;72.89
77017;BME280;65949;53.132;17.930;2023-08-17T07:00:03;101673.85;;;18.87;72.99
77017;BME280;65949;53.132;17.930;2023-08-17T07:02:32;101675.70;;;18.90;72.44
77017;BME280;65949;53.132;17.930;2023-08-17T07:04:59;101682.91;;;18.93;72.18
77017;BME280;65949;53.132;17.930;2023-08-17T07:07:26;101683.98;;;18.97;72.15
77017;BME280;65949;53.132;17.930;2023-08-17T07:09:52;101684.19;;;19.06;72.20
77017;BME280;65949;53.132;17.930;2023-08-17T07:12:19;101676.17;;;19.16;71.84
77017;BME280;65949;53.132;17.930;2023-08-17T07:14:46;101670.34;;;19.23;71.77
77017;BME280;65949;53.132;17.930;2023-08-17T07:17:12;101675.86;;;19.31;71.81
77017;BME280;65949;53.132;17.930;2023-08-17T07:19:39;101684.69;;;19.46;71.62
77017;BME280;65949;53.132;17.930;2023-08-17T07:22:06;101688.77;;;19.50;71.56
77017;BME280;65949;53.132;17.930;2023-08-17T07:24:32;101689.67;;;19.45;71.46
77017;BME280;65949;53.132;17.930;2023-08-17T07:26:59;101685.77;;;19.44;71.76
77017;BME280;65949;53.132;17.930;2023-08-17T07:29:26;101684.20;;;19.51;71.54
77017;BME280;65949;53.132;17.930;2023-08-17T07:31:52;101683.33;;;19.53;71.61
77017;BME280;65949;53.132;17.930;2023-08-17T07:34:20;101686.14;;;19.55;71.64
77017;BME280;65949;53.132;17.930;2023-08-17T07:36:47;101682.41;;;19.57;71.21
77017;BME280;65949;53.132;17.930;2023-08-17T07:39:13;101676.58;;;19.56;71.57
77017;BME280;65949;53.132;17.930;2023-08-17T07:41:40;101669.05;;;19.59;71.59
77017;BME280;65949;53.132;17.930;2023-08-17T07:44:07;101656.98;;;19.60;71.72
77017;BME280;65949;53.132;17.930;2023-08-17T07:46:33;101650.83;;;19.51;72.11
77017;BME280;65949;53.132;17.930;2023-08-17T07:49:00;101649.45;;;19.43;72.48
77017;BME280;65949;53.132;17.930;2023-08-17T07:51:26;101648.62;;;19.40;72.36
77017;BME280;65949;53.132;17.930;2023-08-17T07:53:56;101656.80;;;19.44;72.44
77017;BME280;65949;53.132;17.930;2023-08-17T07:56:23;101664.84;;;19.52;72.26
77017;BME280;65949;53.132;17.930;2023-08-17T07:58:49;101670.30;;;19.57;71.87
77017;BME280;65949;53.132;17.930;2023-08-17T08:01:16;101676.52;;;19.66;71.84
77017;BME280;65949;53.132;17.930;2023-08-17T08:03:42;101679.57;;;19.78;71.15
77017;BME280;65949;53.132;17.930;2023-08-17T08:06:09;101676.11;;;19.89;70.86
77017;BME280;65949;53.132;17.930;2023-08-17T08:08:35;101676.44;;;20.01;70.27
77017;BME280;65949;53.132;17.930;2023-08-17T08:11:02;101677.40;;;20.18;70.09
77017;BME280;65949;53.132;17.930;2023-08-17T08:13:31;101692.61;;;20.45;69.17
77017;BME280;65949;53.132;17.930;2023-08-17T08:16:00;101701.95;;;20.70;68.62
77017;BME280;65949;53.132;17.930;2023-08-17T08:18:27;101705.97;;;20.90;67.66
77017;BME280;65949;53.132;17.930;2023-08-17T08:20:53;101708.85;;;21.03;67.16
77017;BME280;65949;53.132;17.930;2023-08-17T08:23:20;101708.48;;;21.13;67.10
77017;BME280;65949;53.132;17.930;2023-08-17T08:25:46;101693.42;;;21.13;66.07
77017;BME280;65949;53.132;17.930;2023-08-17T08:28:13;101680.64;;;21.09;66.26
77017;BME280;65949;53.132;17.930;2023-08-17T08:30:40;101671.33;;;20.92;66.48
77017;BME280;65949;53.132;17.930;2023-08-17T08:33:06;101664.27;;;20.62;67.23
77017;BME280;65949;53.132;17.930;2023-08-17T08:35:33;101666.88;;;20.45;67.77
77017;BME280;65949;53.132;17.930;2023-08-17T08:38:01;101665.88;;;20.40;68.12
77017;BME280;65949;53.132;17.930;2023-08-17T08:40:32;101653.80;;;20.41;68.37
77017;BME280;65949;53.132;17.930;2023-08-17T08:43:09;101655.23;;;20.38;68.49
77017;BME280;65949;53.132;17.930;2023-08-17T08:45:41;101651.95;;;20.40;68.61
77017;BME280;65949;53.132;17.930;2023-08-17T08:48:09;101646.27;;;20.40;68.74
77017;BME280;65949;53.132;17.930;2023-08-17T08:50:36;101639.70;;;20.42;69.02
77017;BME280;65949;53.132;17.930;2023-08-17T08:53:17;101640.84;;;20.46;68.95
77017;BME280;65949;53.132;17.930;2023-08-17T08:55:54;101641.17;;;20.56;69.10
77017;BME280;65949;53.132;17.930;2023-08-17T08:58:27;101639.61;;;20.71;68.75
77017;BME280;65949;53.132;17.930;2023-08-17T09:00:57;101635.64;;;20.79;68.93
77017;BME280;65949;53.132;17.930;2023-08-17T09:03:25;101626.80;;;20.84;68.33
77017;BME280;65949;53.132;17.930;2023-08-17T09:05:52;101623.95;;;20.88;68.31
77017;BME280;65949;53.132;17.930;2023-08-17T09:08:29;101621.73;;;21.01;68.17
77017;BME280;65949;53.132;17.930;2023-08-17T09:10:57;101620.86;;;21.15;67.70
77017;BME280;65949;53.132;17.930;2023-08-17T09:13:24;101622.38;;;21.25;66.97
77017;BME280;65949;53.132;17.930;2023-08-17T09:15:51;101625.70;;;21.40;66.93
77017;BME280;65949;53.132;17.930;2023-08-17T09:18:20;101629.63;;;21.60;66.29
77017;BME280;65949;53.132;17.930;2023-08-17T09:20:47;101632.69;;;21.72;65.54
77017;BME280;65949;53.132;17.930;2023-08-17T09:23:17;101624.60;;;21.84;65.69
77017;BME280;65949;53.132;17.930;2023-08-17T09:25:50;101620.38;;;21.94;65.37
77017;BME280;65949;53.132;17.930;2023-08-17T09:28:26;101623.20;;;21.83;65.18
77017;BME280;65949;53.132;17.930;2023-08-17T09:30:53;101626.25;;;21.64;65.44
77017;BME280;65949;53.132;17.930;2023-08-17T09:33:25;101626.98;;;21.46;65.96
77017;BME280;65949;53.132;17.930;2023-08-17T09:35:53;101623.75;;;21.35;66.60
77017;BME280;65949;53.132;17.930;2023-08-17T09:38:20;101605.39;;;21.21;67.14
77017;BME280;65949;53.132;17.930;2023-08-17T09:40:47;101589.29;;;21.04;68.30
77017;BME280;65949;53.132;17.930;2023-08-17T09:43:15;101581.96;;;20.83;69.62
77017;BME280;65949;53.132;17.930;2023-08-17T09:45:43;101575.51;;;20.62;70.71
77017;BME280;65949;53.132;17.930;2023-08-17T09:48:14;101565.21;;;20.48;71.55
77017;BME280;65949;53.132;17.930;2023-08-17T09:50:42;101555.84;;;20.46;72.19
77017;BME280;65949;53.132;17.930;2023-08-17T09:53:13;101536.20;;;20.45;72.69
77017;BME280;65949;53.132;17.930;2023-08-17T09:55:46;101532.80;;;20.48;73.08
77017;BME280;65949;53.132;17.930;2023-08-17T09:58:14;101529.89;;;20.53;72.93
77017;BME280;65949;53.132;17.930;2023-08-17T10:00:49;101530.50;;;20.59;73.00
77017;BME280;65949;53.132;17.930;2023-08-17T10:03:17;101529.19;;;20.71;72.55
77017;BME280;65949;53.132;17.930;2023-08-17T10:05:47;101520.02;;;20.89;72.59
77017;BME280;65949;53.132;17.930;2023-08-17T10:08:19;101516.03;;;21.16;72.70
77017;BME280;65949;53.132;17.930;2023-08-17T10:10:47;101524.20;;;21.41;72.13
77017;BME280;65949;53.132;17.930;2023-08-17T10:13:28;101526.89;;;21.58;70.90
77017;BME280;65949;53.132;17.930;2023-08-17T10:16:06;101528.36;;;21.67;70.47
77017;BME280;65949;53.132;17.930;2023-08-17T10:18:45;101523.73;;;21.81;70.87
77017;BME280;65949;53.132;17.930;2023-08-17T10:21:50;101524.76;;;21.96;69.71
77017;BME280;65949;53.132;17.930;2023-08-17T10:24:20;101522.45;;;22.12;68.64
77017;BME280;65949;53.132;17.930;2023-08-17T10:26:47;101523.79;;;22.21;68.26
77017;BME280;65949;53.132;17.930;2023-08-17T10:29:16;101523.85;;;22.36;67.79
77017;BME280;65949;53.132;17.930;2023-08-17T10:31:44;101523.69;;;22.61;66.92
77017;BME280;65949;53.132;17.930;2023-08-17T10:34:15;101519.35;;;22.79;65.85
77017;BME280;65949;53.132;17.930;2023-08-17T10:36:42;101523.89;;;22.95;63.64
77017;BME280;65949;53.132;17.930;2023-08-17T10:39:21;101521.70;;;23.04;61.09
77017;BME280;65949;53.132;17.930;2023-08-17T10:41:50;101523.08;;;23.06;60.47
77017;BME280;65949;53.132;17.930;2023-08-17T10:44:45;101524.90;;;23.13;60.71
77017;BME280;65949;53.132;17.930;2023-08-17T10:49:49;101537.36;;;23.23;59.19
77017;BME280;65949;53.132;17.930;2023-08-17T10:52:28;101535.84;;;23.33;59.37
77017;BME280;65949;53.132;17.930;2023-08-17T10:54:56;101535.11;;;23.56;59.14
77017;BME280;65949;53.132;17.930;2023-08-17T10:57:34;101534.09;;;23.81;58.29
77017;BME280;65949;53.132;17.930;2023-08-17T11:00:12;101528.39;;;23.93;57.98
77017;BME280;65949;53.132;17.930;2023-08-17T11:02:43;101522.27;;;24.04;57.76
77017;BME280;65949;53.132;17.930;2023-08-17T11:05:11;101517.98;;;24.11;57.79
77017;BME280;65949;53.132;17.930;2023-08-17T11:07:44;101516.45;;;24.09;57.63
77017;BME280;65949;53.132;17.930;2023-08-17T11:12:47;101514.21;;;23.94;57.82
77017;BME280;65949;53.132;17.930;2023-08-17T11:15:14;101513.38;;;23.98;58.31
77017;BME280;65949;53.132;17.930;2023-08-17T11:17:41;101508.77;;;24.08;58.23
77017;BME280;65949;53.132;17.930;2023-08-17T11:20:09;101511.09;;;24.17;57.88
77017;BME280;65949;53.132;17.930;2023-08-17T11:22:36;101512.45;;;24.26;57.74
77017;BME280;65949;53.132;17.930;2023-08-17T11:25:04;101516.48;;;24.38;57.50
77017;BME280;65949;53.132;17.930;2023-08-17T11:27:31;101517.14;;;24.51;56.57
77017;BME280;65949;53.132;17.930;2023-08-17T11:29:57;101525.16;;;24.63;56.63
77017;BME280;65949;53.132;17.930;2023-08-17T11:32:24;101522.48;;;24.69;56.09
77017;BME280;65949;53.132;17.930;2023-08-17T11:34:51;101525.45;;;24.73;56.04
77017;BME280;65949;53.132;17.930;2023-08-17T11:37:18;101531.27;;;24.84;55.78
77017;BME280;65949;53.132;17.930;2023-08-17T11:39:44;101530.05;;;24.97;55.70
77017;BME280;65949;53.132;17.930;2023-08-17T11:42:11;101526.67;;;25.17;56.12
77017;BME280;65949;53.132;17.930;2023-08-17T11:44:38;101516.84;;;25.32;54.96
77017;BME280;65949;53.132;17.930;2023-08-17T11:47:04;101517.27;;;25.38;54.52
77017;BME280;65949;53.132;17.930;2023-08-17T11:49:31;101511.43;;;25.41;54.38
77017;BME280;65949;53.132;17.930;2023-08-17T11:51:58;101509.45;;;25.43;54.32
77017;BME280;65949;53.132;17.930;2023-08-17T11:54:24;101502.01;;;25.53;54.44
77017;BME280;65949;53.132;17.930;2023-08-17T11:56:51;101503.45;;;25.64;54.13
77017;BME280;65949;53.132;17.930;2023-08-17T11:59:19;101503.51;;;25.73;53.68
77017;BME280;65949;53.132;17.930;2023-08-17T12:01:48;101505.18;;;25.85;54.22
77017;BME280;65949;53.132;17.930;2023-08-17T12:04:15;101508.52;;;25.94;53.52
77017;BME280;65949;53.132;17.930;2023-08-17T12:06:44;101509.88;;;26.09;53.68
77017;BME280;65949;53.132;17.930;2023-08-17T12:09:14;101510.23;;;26.25;53.05
77017;BME280;65949;53.132;17.930;2023-08-17T12:11:41;101506.91;;;26.27;52.71
77017;BME280;65949;53.132;17.930;2023-08-17T12:14:09;101508.73;;;26.33;53.39
77017;BME280;65949;53.132;17.930;2023-08-17T12:16:47;101515.85;;;26.42;52.95
77017;BME280;65949;53.132;17.930;2023-08-17T12:19:19;101515.51;;;26.38;52.75
77017;BME280;65949;53.132;17.930;2023-08-17T12:21:50;101515.83;;;26.31;53.24
77017;BME280;65949;53.132;17.930;2023-08-17T12:24:17;101511.73;;;26.30;52.78
77017;BME280;65949;53.132;17.930;2023-08-17T12:26:46;101508.94;;;26.33;53.06
77017;BME280;65949;53.132;17.930;2023-08-17T12:29:13;101508.23;;;26.43;53.06
77017;BME280;65949;53.132;17.930;2023-08-17T12:31:40;101509.04;;;26.41;52.67
77017;BME280;65949;53.132;17.930;2023-08-17T12:34:07;101507.20;;;26.41;53.02
77017;BME280;65949;53.132;17.930;2023-08-17T12:36:35;101503.54;;;26.49;52.63
77017;BME280;65949;53.132;17.930;2023-08-17T12:39:04;101496.82;;;26.55;52.47
77017;BME280;65949;53.132;17.930;2023-08-17T12:41:32;101498.45;;;26.65;52.19
77017;BME280;65949;53.132;17.930;2023-08-17T12:43:58;101502.20;;;26.73;52.43
77017;BME280;65949;53.132;17.930;2023-08-17T12:46:25;101503.89;;;26.82;51.88
77017;BME280;65949;53.132;17.930;2023-08-17T12:48:52;101500.48;;;26.89;52.34
77017;BME280;65949;53.132;17.930;2023-08-17T12:51:19;101500.66;;;27.04;52.31
77017;BME280;65949;53.132;17.930;2023-08-17T12:53:45;101502.35;;;27.10;51.22
77017;BME280;65949;53.132;17.930;2023-08-17T12:56:12;101502.02;;;27.03;51.04